Time;durP1;ratioP1;P1;durP2;ratioP2;P2;SDS_P1;SDS_P2;PMS_P1;PMS_P2;Temp;Humidity;BMP_temperature;BMP_pressure;BME280_temperature;BME280_humidity;BME280_pressure;Samples;Min_cycle;Max_cycle;Signal;HPM_P1;HPM_P2
2023/03/25 00:02:23;;;;;;;24.98;3.50;;;;;;;8.93;100.00;99908.97;5016992;28;20132;-74
2023/03/25 00:04:53;;;;;;;16.10;4.68;;;;;;;9.00;100.00;99909.41;5008420;28;20781;-74
2023/03/25 00:07:20;;;;;;;23.58;3.55;;;;;;;9.01;100.00;99906.66;5009361;28;20046;-74
2023/03/25 00:09:47;;;;;;;25.73;3.67;;;;;;;9.03;100.00;99895.91;5016496;28;20025;-78
2023/03/25 00:12:15;;;;;;;22.25;3.30;;;;;;;9.09;100.00;99904.34;5018577;28;20037;-74
2023/03/25 00:14:42;;;;;;;28.08;3.67;;;;;;;9.11;100.00;99906.91;5013297;28;20034;-76
2023/03/25 00:17:09;;;;;;;17.52;3.22;;;;;;;9.15;100.00;99904.91;5017154;28;20080;-77
2023/03/25 00:19:36;;;;;;;22.27;4.25;;;;;;;9.17;100.00;99911.00;5019506;28;20038;-75
2023/03/25 00:22:02;;;;;;;31.15;3.65;;;;;;;9.17;100.00;99906.53;5016865;28;20045;-73
2023/03/25 00:24:29;;;;;;;20.20;3.25;;;;;;;9.18;100.00;99907.38;5006244;28;20037;-75
2023/03/25 00:26:55;;;;;;;19.85;3.60;;;;;;;9.18;100.00;99902.91;5025165;28;20030;-77
2023/03/25 00:29:21;;;;;;;18.33;2.88;;;;;;;9.22;100.00;99898.25;5007943;28;20049;-75
2023/03/25 00:31:48;;;;;;;22.92;4.75;;;;;;;9.23;100.00;99886.66;5006856;28;20049;-77
2023/03/25 00:34:14;;;;;;;27.52;3.88;;;;;;;9.23;100.00;99897.31;5018859;28;20029;-74
2023/03/25 00:36:42;;;;;;;16.67;3.55;;;;;;;9.24;100.00;99897.19;5008007;28;20045;-77
2023/03/25 00:39:09;;;;;;;21.58;3.60;;;;;;;9.28;100.00;99898.72;5025068;28;20394;-74
2023/03/25 00:41:36;;;;;;;25.48;5.05;;;;;;;9.27;100.00;99904.97;4999793;28;20080;-74
2023/03/25 00:44:03;;;;;;;21.20;3.05;;;;;;;9.28;100.00;99906.69;5010707;28;20490;-77
2023/03/25 00:46:33;;;;;;;19.15;4.45;;;;;;;9.20;100.00;99914.31;5024575;28;20032;-75
2023/03/25 00:49:00;;;;;;;21.52;3.33;;;;;;;9.01;100.00;99908.47;5018587;28;20029;-73
2023/03/25 00:51:30;;;;;;;19.35;3.45;;;;;;;8.95;100.00;99911.53;5008840;28;20171;-75
2023/03/25 00:54:00;;;;;;;17.88;3.38;;;;;;;8.95;100.00;99915.03;5021849;28;20049;-76
2023/03/25 00:56:27;;;;;;;;;;;;;;;9.00;100.00;99899.63;5024176;28;20484;-75
2023/03/25 00:58:53;;;;;;;23.15;3.70;;;;;;;9.06;100.00;99903.72;5019788;28;19913;-76
2023/03/25 01:01:22;;;;;;;18.23;3.38;;;;;;;9.12;100.00;99908.63;5002250;28;20072;-74
2023/03/25 01:03:56;;;;;;;22.33;4.32;;;;;;;9.17;100.00;99903.88;5020571;28;20517;-77
2023/03/25 01:06:27;;;;;;;20.27;2.67;;;;;;;9.19;100.00;99898.44;5021431;28;20033;-74
2023/03/25 01:08:55;;;;;;;27.50;4.63;;;;;;;9.20;100.00;99900.16;5001935;28;20116;-74
2023/03/25 01:11:25;;;;;;;24.02;3.60;;;;;;;9.22;100.00;99898.25;5025207;28;20041;-74
2023/03/25 01:13:53;;;;;;;19.20;3.13;;;;;;;9.19;100.00;99906.41;5024477;28;20413;-74
2023/03/25 01:16:19;;;;;;;24.60;3.35;;;;;;;9.23;100.00;99903.47;5021255;28;20044;-74
2023/03/25 01:18:46;;;;;;;19.98;3.83;;;;;;;9.21;100.00;99896.53;5021500;28;20216;-75
2023/03/25 01:21:13;;;;;;;17.60;3.13;;;;;;;9.23;100.00;99895.47;5006910;28;20026;-75
2023/03/25 01:23:39;;;;;;;22.75;4.18;;;;;;;9.23;100.00;99892.81;5017517;28;20038;-74
2023/03/25 01:26:05;;;;;;;19.40;3.10;;;;;;;9.23;100.00;99899.97;5016417;28;20037;-75
2023/03/25 01:28:32;;;;;;;18.63;3.45;;;;;;;9.19;100.00;99899.31;5011663;28;20041;-74
2023/03/25 01:31:06;;;;;;;20.92;3.33;;;;;;;9.16;100.00;99895.97;5024383;28;20037;-75
2023/03/25 01:33:33;;;;;;;20.23;3.72;;;;;;;8.98;100.00;99900.66;5022162;28;20040;-77
2023/03/25 01:36:01;;;;;;;21.02;3.55;;;;;;;8.83;100.00;99882.06;5018168;28;20068;-75
2023/03/25 01:38:29;;;;;;;25.83;3.63;;;;;;;8.71;100.00;99885.50;5021886;28;20029;-74
2023/03/25 01:40:56;;;;;;;20.30;3.60;;;;;;;8.59;100.00;99886.25;5006990;28;20034;-74
2023/03/25 01:43:23;;;;;;;21.63;3.33;;;;;;;8.42;100.00;99893.47;5020720;28;20061;-74
2023/03/25 01:45:50;;;;;;;25.85;4.63;;;;;;;8.30;100.00;99895.06;5006541;28;20396;-74
2023/03/25 01:48:18;;;;;;;28.10;4.35;;;;;;;8.20;100.00;99888.63;5026086;28;20087;-76
2023/03/25 01:51:17;;;;;;;27.42;4.40;;;;;;;8.14;100.00;99903.13;5021091;28;20078;-75
2023/03/25 01:53:44;;;;;;;32.45;5.18;;;;;;;8.07;100.00;99904.44;5013429;28;20048;-75
2023/03/25 01:56:14;;;;;;;20.40;3.78;;;;;;;8.05;100.00;99893.06;5020199;28;20117;-75
2023/03/25 01:58:40;;;;;;;21.90;3.90;;;;;;;8.06;100.00;99897.41;5007575;28;20041;-76
2023/03/25 02:01:12;;;;;;;30.02;5.28;;;;;;;8.06;100.00;99892.09;5032616;28;20128;-75
2023/03/25 02:03:44;;;;;;;27.38;4.50;;;;;;;8.12;100.00;99897.03;5012178;28;20140;-75
2023/03/25 02:06:27;;;;;;;23.65;4.03;;;;;;;8.19;100.00;99875.41;5036110;28;20075;-74
2023/03/25 02:09:03;;;;;;;20.25;3.97;;;;;;;8.24;100.00;99891.94;5020640;28;20033;-73
2023/03/25 02:11:30;;;;;;;27.70;4.55;;;;;;;8.28;100.00;99885.50;5033377;28;20046;-75
2023/03/25 02:14:00;;;;;;;22.63;4.00;;;;;;;8.31;100.00;99890.59;5022221;28;20568;-76
2023/03/25 02:16:33;;;;;;;21.60;4.53;;;;;;;8.32;100.00;99871.06;5019924;28;20560;-76
2023/03/25 02:19:18;;;;;;;35.15;5.38;;;;;;;8.29;100.00;99885.41;5036484;28;20030;-76
2023/03/25 02:21:56;;;;;;;27.42;4.55;;;;;;;8.31;100.00;99880.84;5019148;28;20034;-77
2023/03/25 02:24:45;;;;;;;25.88;5.53;;;;;;;8.34;100.00;99879.78;5001702;28;20502;-75
2023/03/25 02:27:32;;;;;;;21.17;4.82;;;;;;;8.36;100.00;99875.22;5019051;28;20562;-75
2023/03/25 02:30:13;;;;;;;30.88;6.38;;;;;;;8.37;100.00;99884.91;5004641;28;20056;-74
2023/03/25 02:33:27;;;;;;;30.13;4.95;;;;;;;8.37;100.00;99884.91;5016110;28;20057;-73
2023/03/25 02:36:09;;;;;;;28.40;4.57;;;;;;;8.37;100.00;99876.94;5030439;28;20111;-79
2023/03/25 02:38:47;;;;;;;28.33;4.28;;;;;;;8.40;100.00;99874.06;5013034;28;20041;-73
2023/03/25 02:41:31;;;;;;;29.10;4.25;;;;;;;8.44;100.00;99882.75;5018716;28;20088;-74
2023/03/25 02:44:07;;;;;;;29.27;4.63;;;;;;;8.44;100.00;99875.66;5019796;28;20044;-73
2023/03/25 02:46:36;;;;;;;30.23;4.57;;;;;;;8.43;100.00;99855.31;5019638;28;20033;-78
2023/03/25 02:49:09;;;;;;;24.65;4.10;;;;;;;8.47;100.00;99872.78;5010060;28;20136;-76
2023/03/25 02:51:45;;;;;;;34.58;4.93;;;;;;;8.53;100.00;99874.19;5008045;28;20098;-75
2023/03/25 02:54:13;;;;;;;21.20;3.83;;;;;;;8.52;100.00;99869.84;5018075;28;20030;-75
2023/03/25 02:56:43;;;;;;;30.05;3.95;;;;;;;8.54;100.00;99863.47;5003880;28;20450;-73
2023/03/25 02:59:14;;;;;;;34.33;5.57;;;;;;;8.57;100.00;99869.56;5013773;28;20705;-73
2023/03/25 03:01:41;;;;;;;38.22;4.85;;;;;;;8.59;100.00;99865.88;5019748;28;20126;-76
2023/03/25 03:04:07;;;;;;;25.45;4.03;;;;;;;8.57;100.00;99857.09;5005789;28;20038;-75
2023/03/25 03:06:40;;;;;;;27.55;4.68;;;;;;;8.50;100.00;99864.63;5007654;28;20033;-75
2023/03/25 03:09:21;;;;;;;23.95;5.35;;;;;;;8.51;100.00;99845.03;5028882;28;20029;-76
2023/03/25 03:11:48;;;;;;;32.25;5.88;;;;;;;8.49;100.00;99852.25;5014998;28;20030;-75
2023/03/25 03:14:35;;;;;;;43.42;6.15;;;;;;;8.48;100.00;99849.69;5018665;28;20037;-75
2023/03/25 03:17:02;;;;;;;32.63;5.53;;;;;;;8.38;100.00;99843.22;5017213;28;20033;-76
2023/03/25 03:19:47;;;;;;;35.58;5.95;;;;;;;8.33;100.00;99854.13;5016176;28;20033;-77
2023/03/25 03:22:34;;;;;;;30.77;5.35;;;;;;;8.30;100.00;99841.03;5032348;28;20100;-74
2023/03/25 03:25:29;;;;;;;29.02;4.45;;;;;;;8.23;100.00;99851.19;5032352;28;20030;-77
2023/03/25 03:28:34;;;;;;;31.13;5.25;;;;;;;8.27;100.00;99857.16;5023639;28;20029;-77
2023/03/25 03:31:14;;;;;;;17.17;4.07;;;;;;;8.28;100.00;99858.91;5018060;28;20371;-75
2023/03/25 03:33:56;;;;;;;26.67;5.50;;;;;;;8.28;100.00;99842.94;4984344;28;20569;-77
2023/03/25 03:36:29;;;;;;;33.28;6.20;;;;;;;8.24;100.00;99841.44;5012280;28;20060;-74
2023/03/25 03:39:04;;;;;;;29.35;5.22;;;;;;;8.20;100.00;99842.53;5018570;28;20061;-75
2023/03/25 03:41:33;;;;;;;25.95;5.25;;;;;;;8.18;100.00;99839.97;5015756;28;20034;-74
2023/03/25 03:44:15;;;;;;;24.20;5.05;;;;;;;8.15;100.00;99840.19;5009994;28;20083;-75
2023/03/25 03:46:54;;;;;;;26.92;5.05;;;;;;;8.18;100.00;99839.13;5017691;28;20041;-75
2023/03/25 03:49:25;;;;;;;30.10;5.25;;;;;;;8.21;100.00;99833.63;5030350;28;20030;-74
2023/03/25 03:52:24;;;;;;;37.75;5.20;;;;;;;8.24;100.00;99830.78;5001433;28;20044;-75
2023/03/25 03:55:03;;;;;;;23.00;4.57;;;;;;;8.16;100.00;99839.22;5047943;28;20115;-74
2023/03/25 03:57:37;;;;;;;35.40;6.28;;;;;;;8.07;100.00;99843.31;5017301;28;20990;-77
2023/03/25 04:00:10;;;;;;;30.50;5.32;;;;;;;8.00;100.00;99841.97;5017602;28;20045;-79
2023/03/25 04:02:57;;;;;;;29.27;5.72;;;;;;;7.94;100.00;99845.84;5014751;28;20034;-76
2023/03/25 04:05:29;;;;;;;33.10;6.45;;;;;;;7.90;100.00;99859.41;5022794;28;20609;-78
2023/03/25 04:08:10;;;;;;;34.10;5.45;;;;;;;7.86;100.00;99860.53;5021298;28;20496;-78
2023/03/25 04:10:39;;;;;;;31.73;6.35;;;;;;;7.81;100.00;99865.28;5016983;28;20087;-78
2023/03/25 04:13:10;;;;;;;36.90;5.25;;;;;;;7.80;100.00;99855.59;5020641;28;20029;-77
2023/03/25 04:15:36;;;;;;;;;;;;;;;7.78;100.00;99865.47;5015620;28;20060;-75
2023/03/25 04:18:03;;;;;;;24.88;4.50;;;;;;;7.78;100.00;99862.81;5021013;28;19917;-76
2023/03/25 04:20:35;;;;;;;26.77;4.93;;;;;;;7.79;100.00;99872.47;5004624;28;20521;-76
2023/03/25 04:23:03;;;;;;;24.73;5.82;;;;;;;7.83;100.00;99858.06;5019005;28;20044;-80
2023/03/25 04:25:31;;;;;;;27.75;6.20;;;;;;;7.86;100.00;99847.25;5020880;28;20026;-78
2023/03/25 04:27:58;;;;;;;30.08;6.53;;;;;;;7.89;100.00;99860.38;5012090;28;20045;-77
2023/03/25 04:30:29;;;;;;;28.70;5.82;;;;;;;7.90;100.00;99854.09;4989533;28;20042;-78
2023/03/25 04:32:56;;;;;;;;;;;;;;;7.82;100.00;99856.38;5017201;28;20033;-78
2023/03/25 04:35:24;;;;;;;33.10;5.47;;;;;;;7.75;100.00;99839.91;5052883;28;20366;-77
2023/03/25 04:37:53;;;;;;;27.25;5.65;;;;;;;7.76;100.00;99849.63;5012374;28;20041;-78
2023/03/25 04:40:19;;;;;;;31.63;6.22;;;;;;;7.79;100.00;99846.78;5008189;28;20041;-74
2023/03/25 04:42:46;;;;;;;34.22;6.13;;;;;;;7.83;100.00;99853.63;5013685;28;20034;-74
2023/03/25 04:45:15;;;;;;;39.85;6.70;;;;;;;7.88;100.00;99859.53;5017969;28;20053;-78
2023/03/25 04:47:47;;;;;;;29.00;6.57;;;;;;;7.91;100.00;99861.13;5016700;28;20059;-76
2023/03/25 04:50:24;;;;;;;46.47;9.15;;;;;;;7.94;100.00;99860.97;5016652;28;20029;-74
2023/03/25 04:52:51;;;;;;;48.15;6.60;;;;;;;7.95;100.00;99860.00;5017626;28;20491;-80
2023/03/25 04:55:21;;;;;;;42.47;6.32;;;;;;;7.94;100.00;99855.63;5003193;28;20053;-77
2023/03/25 04:57:49;;;;;;;38.38;6.00;;;;;;;7.95;100.00;99852.03;5016462;28;20399;-77
2023/03/25 05:00:18;;;;;;;41.83;8.63;;;;;;;8.01;100.00;99861.41;5005435;28;20103;-75
2023/03/25 05:02:46;;;;;;;32.25;5.07;;;;;;;8.06;100.00;99862.00;5014685;28;20037;-79
2023/03/25 05:05:17;;;;;;;45.63;6.20;;;;;;;8.06;100.00;99860.19;5021816;28;20064;-81
2023/03/25 05:07:45;;;;;;;48.10;6.05;;;;;;;8.12;100.00;99859.81;5020155;28;21376;-76
2023/03/25 05:10:13;;;;;;;33.38;5.00;;;;;;;8.10;100.00;99861.72;5009437;28;20033;-77
2023/03/25 05:12:39;;;;;;;32.40;6.75;;;;;;;8.12;100.00;99865.13;5020509;28;20092;-79
2023/03/25 05:15:07;;;;;;;33.75;6.22;;;;;;;8.15;100.00;99866.78;5000382;28;20886;-78
2023/03/25 05:17:33;;;;;;;44.67;5.47;;;;;;;8.17;100.00;99867.53;5009400;28;20037;-77
2023/03/25 05:19:59;;;;;;;45.10;5.72;;;;;;;8.18;100.00;99868.38;5006477;28;20119;-76
2023/03/25 05:22:26;;;;;;;43.55;6.13;;;;;;;8.10;100.00;99864.38;5023612;28;20112;-78
2023/03/25 05:24:53;;;;;;;48.45;5.53;;;;;;;8.11;100.00;99854.63;5019507;28;20030;-75
2023/03/25 05:27:20;;;;;;;44.78;5.63;;;;;;;8.22;100.00;99864.56;5017464;28;20730;-79
2023/03/25 05:29:46;;;;;;;42.42;6.45;;;;;;;8.32;100.00;99877.22;5031222;28;20045;-76
2023/03/25 05:32:16;;;;;;;43.58;6.00;;;;;;;8.34;100.00;99877.13;5013923;28;20118;-76
2023/03/25 05:34:45;;;;;;;38.38;4.75;;;;;;;8.33;100.00;99878.06;5018493;28;20100;-74
2023/03/25 05:37:15;;;;;;;46.90;7.88;;;;;;;8.29;100.00;99873.88;5008523;28;20030;-73
2023/03/25 05:39:41;;;;;;;38.08;5.82;;;;;;;8.30;100.00;99879.13;5014929;28;20033;-76
2023/03/25 05:42:09;;;;;;;42.95;7.47;;;;;;;8.25;100.00;99883.00;5026842;28;20037;-76
2023/03/25 05:44:37;;;;;;;44.72;5.53;;;;;;;8.21;100.00;99884.16;5021232;28;20034;-76
2023/03/25 05:47:04;;;;;;;39.53;6.57;;;;;;;8.18;100.00;99884.31;5035091;28;20030;-78
2023/03/25 05:49:31;;;;;;;27.60;4.25;;;;;;;8.11;100.00;99881.19;5023629;28;20037;-74
2023/03/25 05:52:00;;;;;;;33.20;4.68;;;;;;;8.10;100.00;99866.19;5017320;28;20073;-79
2023/03/25 05:54:27;;;;;;;46.90;5.72;;;;;;;8.11;100.00;99898.00;5020111;28;20087;-76
2023/03/25 05:56:53;;;;;;;32.80;4.75;;;;;;;8.14;100.00;99895.16;5012928;28;20286;-76
2023/03/25 05:59:19;;;;;;;39.63;6.15;;;;;;;8.15;100.00;99896.00;5018108;28;20037;-75
2023/03/25 06:01:46;;;;;;;36.55;6.25;;;;;;;8.20;100.00;99890.41;5015660;28;20041;-76
2023/03/25 06:04:15;;;;;;;35.13;6.13;;;;;;;8.24;100.00;99902.59;5034326;28;20057;-75
2023/03/25 06:06:41;;;;;;;36.58;5.82;;;;;;;8.28;100.00;99896.13;5009591;28;20022;-76
2023/03/25 06:09:09;;;;;;;38.20;4.82;;;;;;;8.30;100.00;99895.06;5024652;28;20439;-76
2023/03/25 06:11:38;;;;;;;45.67;6.13;;;;;;;8.38;100.00;99899.91;5019419;28;20517;-75
2023/03/25 06:14:05;;;;;;;35.17;4.85;;;;;;;8.45;100.00;99898.63;5022441;28;20119;-75
2023/03/25 06:16:32;;;;;;;33.50;5.93;;;;;;;8.46;100.00;99892.38;5005735;28;20034;-75
2023/03/25 06:18:59;;;;;;;34.92;4.97;;;;;;;8.41;100.00;99905.06;5017474;28;20048;-74
2023/03/25 06:21:26;;;;;;;44.63;5.38;;;;;;;8.31;100.00;99906.56;5019629;28;20045;-77
2023/03/25 06:23:53;;;;;;;37.92;4.63;;;;;;;8.19;100.00;99902.00;5020937;28;20064;-77
2023/03/25 06:26:21;;;;;;;48.03;6.35;;;;;;;8.09;100.00;99905.22;5019806;28;20203;-76
2023/03/25 06:28:48;;;;;;;53.97;8.32;;;;;;;8.02;100.00;99890.56;5016973;28;20117;-77
2023/03/25 06:31:21;;;;;;;41.20;4.63;;;;;;;7.97;100.00;99914.75;5018635;28;20037;-76
2023/03/25 06:33:49;;;;;;;41.50;5.95;;;;;;;7.92;100.00;99918.63;5021694;28;20471;-76
2023/03/25 06:36:17;;;;;;;41.47;6.53;;;;;;;7.91;100.00;99911.63;5017394;28;20042;-75
2023/03/25 06:38:45;;;;;;;47.13;7.53;;;;;;;7.86;100.00;99911.88;5031278;28;20600;-76
2023/03/25 06:41:19;;;;;;;37.30;5.13;;;;;;;7.84;100.00;99923.56;5009634;28;20502;-77
2023/03/25 06:43:48;;;;;;;37.03;5.00;;;;;;;7.82;100.00;99907.69;5023740;28;20095;-77
2023/03/25 06:46:20;;;;;;;39.47;5.22;;;;;;;7.85;100.00;99914.66;5025760;28;20231;-75
2023/03/25 06:49:19;;;;;;;39.00;5.53;;;;;;;7.92;100.00;99921.28;4997535;28;20046;-74
2023/03/25 06:51:45;;;;;;;45.63;5.40;;;;;;;7.97;100.00;99929.84;5014907;28;20107;-74
2023/03/25 06:54:11;;;;;;;39.22;5.20;;;;;;;8.03;100.00;99916.19;5012957;28;20025;-75
2023/03/25 06:56:41;;;;;;;44.90;6.22;;;;;;;8.07;100.00;99924.84;5021957;28;20825;-75
2023/03/25 06:59:08;;;;;;;35.88;5.78;;;;;;;8.12;100.00;99928.09;5033529;28;20051;-77
2023/03/25 07:01:34;;;;;;;42.15;5.38;;;;;;;8.14;100.00;99916.44;5011476;28;20047;-74
2023/03/25 07:04:00;;;;;;;45.10;5.03;;;;;;;8.20;100.00;99925.84;5019076;28;20514;-73
2023/03/25 07:06:27;;;;;;;54.55;6.03;;;;;;;8.25;100.00;99917.56;5020453;28;20029;-75
2023/03/25 07:08:53;;;;;;;28.13;4.75;;;;;;;8.32;100.00;99925.06;5007490;28;20032;-77
2023/03/25 07:11:27;;;;;;;28.95;3.90;;;;;;;8.37;100.00;99922.16;5003650;28;20138;-77
2023/03/25 07:13:54;;;;;;;34.28;5.45;;;;;;;8.42;100.00;99925.41;5008979;28;20029;-77
2023/03/25 07:16:21;;;;;;;39.75;5.30;;;;;;;8.49;100.00;99931.22;5033260;28;20044;-76
2023/03/25 07:18:49;;;;;;;44.40;6.18;;;;;;;8.58;100.00;99924.47;5026268;28;20036;-78
2023/03/25 07:21:15;;;;;;;40.63;5.68;;;;;;;8.63;100.00;99936.53;5037065;28;20094;-77
2023/03/25 07:23:41;;;;;;;38.88;6.25;;;;;;;8.80;100.00;99929.31;5010607;28;20029;-74
2023/03/25 07:26:08;;;;;;;34.88;5.30;;;;;;;8.87;100.00;99928.84;5038902;28;20467;-76
2023/03/25 07:28:36;;;;;;;36.45;5.65;;;;;;;8.98;100.00;99920.16;5030897;28;20036;-76
2023/03/25 07:31:09;;;;;;;34.97;5.32;;;;;;;9.04;100.00;99933.09;5029722;28;20483;-75
2023/03/25 07:33:36;;;;;;;33.25;4.78;;;;;;;9.07;100.00;99932.03;5022091;28;20037;-74
2023/03/25 07:36:03;;;;;;;36.90;4.82;;;;;;;9.05;100.00;99933.94;5026474;28;20060;-73
2023/03/25 07:38:30;;;;;;;29.15;4.60;;;;;;;9.03;100.00;99931.38;5023302;28;20084;-75
2023/03/25 07:40:56;;;;;;;41.53;4.90;;;;;;;9.03;100.00;99925.19;5027604;28;20030;-76
2023/03/25 07:43:23;;;;;;;38.00;6.10;;;;;;;9.04;100.00;99935.75;5032406;28;20060;-77
2023/03/25 07:45:55;;;;;;;35.90;4.55;;;;;;;9.07;100.00;99934.69;5032516;28;20029;-75
2023/03/25 07:48:21;;;;;;;28.17;4.05;;;;;;;9.08;100.00;99933.75;5028280;28;20119;-75
2023/03/25 07:50:50;;;;;;;24.38;4.50;;;;;;;9.14;100.00;99952.00;5029277;28;20037;-77
2023/03/25 07:53:17;;;;;;;25.98;4.75;;;;;;;9.18;100.00;99945.50;5012149;28;20029;-76
2023/03/25 07:55:44;;;;;;;27.40;4.82;;;;;;;9.21;100.00;99942.66;5022483;28;20034;-77
2023/03/25 07:58:11;;;;;;;27.15;5.38;;;;;;;9.22;100.00;99941.69;5038102;28;20140;-78
2023/03/25 08:00:38;;;;;;;30.63;4.50;;;;;;;9.07;100.00;99921.38;5009116;28;20044;-74
2023/03/25 08:03:05;;;;;;;30.70;4.63;;;;;;;9.29;100.00;99927.03;4976019;28;20038;-74
2023/03/25 08:05:31;;;;;;;32.40;4.35;;;;;;;9.33;100.00;99941.00;5009067;28;20045;-76
2023/03/25 08:08:00;;;;;;;32.17;5.35;;;;;;;9.43;100.00;99933.28;5010332;28;20033;-72
2023/03/25 08:10:26;;;;;;;35.05;5.20;;;;;;;9.40;100.00;99954.78;5029281;28;20032;-77
2023/03/25 08:12:53;;;;;;;24.63;4.35;;;;;;;9.29;100.00;99959.00;5039806;28;20205;-74
2023/03/25 08:15:23;;;;;;;28.95;4.97;;;;;;;9.14;100.00;99941.34;5029390;28;20634;-75
2023/03/25 08:17:51;;;;;;;27.00;4.80;;;;;;;8.90;100.00;99920.63;5030114;28;20064;-74
2023/03/25 08:20:17;;;;;;;33.58;5.10;;;;;;;9.05;100.00;99960.56;5027429;28;20084;-74
2023/03/25 08:22:44;;;;;;;38.70;4.93;;;;;;;9.09;100.00;99967.41;5028072;28;20461;-75
2023/03/25 08:25:10;;;;;;;49.95;7.97;;;;;;;9.03;100.00;99959.81;5023531;28;20098;-74
2023/03/25 08:27:37;;;;;;;36.67;6.30;;;;;;;9.01;100.00;99964.38;5032607;28;20030;-74
2023/03/25 08:30:04;;;;;;;30.10;6.15;;;;;;;9.06;100.00;99959.63;5011938;28;20060;-76
2023/03/25 08:32:31;;;;;;;32.83;4.70;;;;;;;9.12;100.00;99960.06;5028538;28;20041;-76
2023/03/25 08:34:57;;;;;;;42.38;6.05;;;;;;;9.16;100.00;99966.06;5012112;28;20064;-75
2023/03/25 08:37:24;;;;;;;44.08;5.53;;;;;;;9.19;100.00;99967.66;5038378;28;20048;-75
2023/03/25 08:39:54;;;;;;;36.55;5.28;;;;;;;9.25;100.00;99968.13;5012094;28;20048;-76
2023/03/25 08:42:21;;;;;;;27.80;5.03;;;;;;;9.30;100.00;99971.38;5032316;28;20056;-74
2023/03/25 08:44:47;;;;;;;34.30;4.95;;;;;;;9.31;100.00;99957.09;5033426;28;20047;-74
2023/03/25 08:47:13;;;;;;;29.88;4.10;;;;;;;9.46;100.00;99970.38;5032509;28;20454;-75
2023/03/25 08:49:40;;;;;;;32.17;5.10;;;;;;;9.63;100.00;99970.13;5024857;28;20061;-74
2023/03/25 08:52:07;;;;;;;34.90;6.28;;;;;;;9.70;100.00;99968.75;5044597;28;20140;-76
2023/03/25 08:54:34;;;;;;;36.05;5.55;;;;;;;9.82;100.00;99988.44;5039666;28;20037;-76
2023/03/25 08:57:00;;;;;;;38.70;5.15;;;;;;;9.86;100.00;99975.78;5032904;28;20045;-75
2023/03/25 08:59:27;;;;;;;29.85;4.03;;;;;;;9.86;100.00;99973.09;5012277;28;20041;-76
2023/03/25 09:01:53;;;;;;;22.52;4.72;;;;;;;9.94;100.00;99970.78;5012848;28;20113;-72
2023/03/25 09:04:20;;;;;;;29.52;4.88;;;;;;;10.03;100.00;99972.81;5013325;28;20177;-75
2023/03/25 09:06:48;;;;;;;35.03;5.90;;;;;;;10.18;100.00;99984.28;5020623;28;20040;-76
2023/03/25 09:09:15;;;;;;;26.15;4.60;;;;;;;10.34;100.00;99989.44;5022973;28;20923;-77
2023/03/25 09:11:41;;;;;;;32.60;4.47;;;;;;;10.57;100.00;99973.69;5020833;28;20569;-77
2023/03/25 09:14:07;;;;;;;31.00;5.03;;;;;;;10.65;100.00;99982.00;5023211;28;20179;-74
2023/03/25 09:16:34;;;;;;;34.70;4.65;;;;;;;10.91;100.00;99992.69;5023059;28;20558;-75
2023/03/25 09:19:02;;;;;;;28.33;5.00;;;;;;;10.98;100.00;99985.97;5034117;28;20200;-74
2023/03/25 09:21:29;;;;;;;29.42;4.70;;;;;;;10.83;100.00;99990.56;5041639;28;20042;-74
2023/03/25 09:23:55;;;;;;;25.20;4.53;;;;;;;10.84;100.00;99982.41;5018219;28;20239;-73
2023/03/25 09:26:21;;;;;;;34.38;5.32;;;;;;;10.77;100.00;99991.84;5026772;28;20045;-74
2023/03/25 09:28:48;;;;;;;33.63;5.50;;;;;;;10.74;100.00;99986.72;5026761;28;20021;-73
2023/03/25 09:31:14;;;;;;;27.58;5.65;;;;;;;10.81;100.00;99993.34;5040339;28;20033;-74
2023/03/25 09:33:40;;;;;;;35.05;6.10;;;;;;;10.78;100.00;99993.53;5032150;28;20040;-75
2023/03/25 09:36:07;;;;;;;31.17;5.35;;;;;;;10.83;100.00;99996.75;5030932;28;20107;-74
2023/03/25 09:38:33;;;;;;;61.33;7.75;;;;;;;10.81;100.00;99998.66;5027604;28;20508;-73
2023/03/25 09:41:11;;;;;;;37.45;5.82;;;;;;;10.72;100.00;100004.66;5034169;28;20048;-73
2023/03/25 09:44:12;;;;;;;36.38;4.97;;;;;;;10.69;100.00;99998.66;5024784;28;20095;-74
2023/03/25 09:46:39;;;;;;;35.70;6.20;;;;;;;10.62;100.00;100009.78;5026843;28;20155;-73
2023/03/25 09:49:12;;;;;;;33.30;6.55;;;;;;;10.65;100.00;100004.22;5018573;28;20120;-74
2023/03/25 09:51:40;;;;;;;33.00;5.15;;;;;;;10.68;100.00;100008.50;5031861;28;20041;-74
2023/03/25 09:54:15;;;;;;;35.05;5.60;;;;;;;10.83;100.00;100002.09;5030412;28;20148;-77
2023/03/25 09:56:43;;;;;;;29.73;4.38;;;;;;;11.05;100.00;100011.25;5030321;28;20030;-75
2023/03/25 09:59:14;;;;;;;33.00;4.68;;;;;;;11.62;100.00;100015.19;5009601;28;21277;-74
2023/03/25 10:01:50;;;;;;;33.97;5.85;;;;;;;11.48;100.00;100010.88;5030011;28;20835;-73
2023/03/25 10:04:34;;;;;;;33.58;5.63;;;;;;;11.17;100.00;100018.41;5039451;28;20045;-73
2023/03/25 10:07:25;;;;;;;26.08;4.80;;;;;;;10.82;100.00;100012.88;5055678;28;20029;-73
2023/03/25 10:10:21;;;;;;;29.27;4.40;;;;;;;10.77;100.00;100010.53;5031933;28;20045;-74
2023/03/25 10:13:01;;;;;;;40.65;6.30;;;;;;;10.82;100.00;100021.72;5030211;28;20092;-74
2023/03/25 10:15:47;;;;;;;33.90;5.30;;;;;;;10.84;100.00;100009.13;5040594;28;20086;-77
2023/03/25 10:18:17;;;;;;;28.73;4.68;;;;;;;10.88;100.00;100014.25;5030156;28;20121;-78
2023/03/25 10:21:04;;;;;;;37.35;4.95;;;;;;;11.07;100.00;100038.72;5030694;28;20033;-77
2023/03/25 10:24:05;;;;;;;36.05;5.63;;;;;;;11.28;100.00;100028.31;5030379;28;20052;-73
2023/03/25 10:26:49;;;;;;;33.77;6.60;;;;;;;11.54;100.00;100029.13;4997469;28;20041;-76
2023/03/25 10:29:23;;;;;;;26.73;4.32;;;;;;;12.02;100.00;100034.53;5039536;28;20306;-76
2023/03/25 10:31:52;;;;;;;30.77;4.53;;;;;;;12.10;100.00;100035.81;5012288;28;20491;-83
2023/03/25 10:34:23;;;;;;;24.35;5.05;;;;;;;12.08;100.00;100035.03;5019607;28;20033;-83
2023/03/25 10:36:57;;;;;;;28.42;4.07;;;;;;;11.60;100.00;100039.34;5011177;28;20087;-81
2023/03/25 10:39:32;;;;;;;23.27;4.30;;;;;;;11.45;100.00;100033.31;5011085;28;20119;-85
2023/03/25 10:42:02;;;;;;;32.33;4.97;;;;;;;11.37;100.00;100032.13;5011230;28;20124;-74
2023/03/25 10:44:29;;;;;;;25.27;5.28;;;;;;;11.30;100.00;100030.91;5023449;28;20029;-75
2023/03/25 10:47:03;;;;;;;27.92;5.05;;;;;;;11.22;100.00;100037.63;5025666;28;20042;-77
2023/03/25 10:49:31;;;;;;;32.50;4.95;;;;;;;11.23;100.00;100039.31;5019711;28;20045;-76
2023/03/25 10:51:58;;;;;;;30.02;4.80;;;;;;;11.37;100.00;100053.50;5025096;28;20041;-76
2023/03/25 10:54:31;;;;;;;36.58;4.70;;;;;;;11.47;100.00;100059.09;5015407;28;20022;-74
2023/03/25 10:57:02;;;;;;;39.00;6.13;;;;;;;11.75;100.00;100047.25;5033067;28;20104;-74
2023/03/25 10:59:34;;;;;;;22.95;4.65;;;;;;;11.75;100.00;100061.44;5028140;28;20033;-79
2023/03/25 11:02:10;;;;;;;27.27;4.95;;;;;;;11.22;100.00;100032.28;5032313;28;20572;-76
2023/03/25 11:04:39;;;;;;;31.42;4.72;;;;;;;10.86;100.00;100057.97;5013130;28;20045;-74
2023/03/25 11:07:19;;;;;;;33.08;5.30;;;;;;;10.91;100.00;100059.44;5037516;28;20044;-73
2023/03/25 11:09:45;;;;;;;40.25;6.57;;;;;;;11.17;100.00;100015.72;5035414;28;20056;-76
2023/03/25 11:12:13;;;;;;;25.75;4.25;;;;;;;11.55;100.00;100068.22;5022044;28;20046;-73
2023/03/25 11:14:40;;;;;;;25.08;4.22;;;;;;;11.81;100.00;100068.16;5033704;28;20041;-77
2023/03/25 11:17:20;;;;;;;28.38;5.88;;;;;;;11.76;100.00;100070.31;5033739;28;20033;-73
2023/03/25 11:20:00;;;;;;;27.48;5.07;;;;;;;11.87;100.00;100065.03;5018842;28;20165;-73
2023/03/25 11:22:27;;;;;;;25.08;4.45;;;;;;;12.06;100.00;100066.41;5026803;28;20093;-74
2023/03/25 11:25:02;;;;;;;19.48;4.18;;;;;;;12.16;100.00;100059.41;5028906;28;20027;-75
2023/03/25 11:27:29;;;;;;;24.50;4.15;;;;;;;12.12;100.00;100074.00;5031156;28;20091;-73
2023/03/25 11:30:07;;;;;;;25.65;4.50;;;;;;;12.21;100.00;100074.16;5025500;28;20489;-75
2023/03/25 11:32:36;;;;;;;29.00;4.18;;;;;;;12.28;100.00;100077.25;5032694;28;20079;-73
2023/03/25 11:35:13;;;;;;;18.33;3.65;;;;;;;12.52;100.00;100073.66;5022860;28;20100;-74
2023/03/25 11:37:48;;;;;;;27.27;5.28;;;;;;;12.42;100.00;100057.44;5045413;28;20537;-73
2023/03/25 11:40:17;;;;;;;19.98;4.13;;;;;;;12.45;100.00;100077.78;5031678;28;20474;-74